Time;durP1;ratioP1;P1;durP2;ratioP2;P2;SDS_P1;SDS_P2;PMS_P1;PMS_P2;Temp;Humidity;BMP_temperature;BMP_pressure;BME280_temperature;BME280_humidity;BME280_pressure;Samples;Min_cycle;Max_cycle;Signal;HPM_P1;HPM_P2
2022/08/28 00:01:14;;;;;;;;;;;;;;;;;;5012906;28;19921;-57
2022/08/28 00:03:40;;;;;;;;;;;;;;;;;;5013627;28;19937;-57
2022/08/28 00:06:07;;;;;;;;;;;;;;;;;;5016664;28;19928;-58
2022/08/28 00:08:33;;;;;;;;;;;;;;;;;;5012595;28;19925;-56
2022/08/28 00:10:58;;;;;;;;;;;;;;;;;;5012638;28;19974;-57
2022/08/28 00:13:25;;;;;;;;;;;;;;;;;;5017566;28;19956;-57
2022/08/28 00:15:51;;;;;;;;;;;;;;;;;;5011899;28;20023;-57
2022/08/28 00:18:16;;;;;;;;;;;;;;;;;;5011538;28;20135;-57
2022/08/28 00:20:45;;;;;;;;;;;;;;;;;;5010407;28;19925;-57
2022/08/28 00:23:13;;;;;;;;;;;;;;;;;;5015630;28;19917;-57
2022/08/28 00:25:38;;;;;;;;;;;;;;;;;;5011710;28;19928;-56
2022/08/28 00:28:04;;;;;;;;;;;;;;;;;;5015769;28;19942;-56
2022/08/28 00:30:34;;;;;;;;;;;;;;;;;;5014454;28;19921;-56
2022/08/28 00:33:02;;;;;;;;;;;;;;;;;;5013543;28;19928;-56
2022/08/28 00:35:29;;;;;;;;;;;;;;;;;;5012034;28;20405;-55
2022/08/28 00:37:58;;;;;;;;;;;;;;;;;;5014327;28;19921;-57
2022/08/28 00:40:23;;;;;;;;;;;;;;;;;;5014212;28;19932;-57
2022/08/28 00:42:51;;;;;;;;;;;;;;;;;;4997991;28;19976;-57
2022/08/28 00:45:18;;;;;;;;;;;;;;;;;;5012882;28;20012;-57
2022/08/28 00:47:43;;;;;;;;;;;;;;;;;;4988398;28;20081;-57
2022/08/28 00:50:13;;;;;;;;;;;;;;;;;;5014806;28;20010;-57
2022/08/28 00:52:38;;;;;;;;;;;;;;;;;;5011572;28;20003;-56
2022/08/28 00:55:04;;;;;;;;;;;;;;;;;;5014344;28;20871;-57
2022/08/28 00:57:29;;;;;;;;;;;;;;;;;;5012087;28;20376;-57
2022/08/28 00:59:57;;;;;;;;;;;;;;;;;;5015522;28;19921;-56
2022/08/28 01:02:26;;;;;;;;;;;;;;;;;;5012556;28;19921;-57
2022/08/28 01:04:51;;;;;;;;;;;;;;;;;;5012770;28;19955;-57
2022/08/28 01:07:22;;;;;;;;;;;;;;;;;;5015253;28;21772;-56
2022/08/28 01:09:47;;;;;;;;;;;;;;;;;;5013938;28;19925;-57
2022/08/28 01:12:15;;;;;;;;;;;;;;;;;;5013732;28;19925;-57
2022/08/28 01:14:44;;;;;;;;;;;;;;;;;;5017622;28;19979;-57
2022/08/28 01:17:12;;;;;;;;;;;;;;;;;;4998643;28;19924;-56
2022/08/28 01:19:37;;;;;;;;;;;;;;;;;;5012349;28;19921;-57
2022/08/28 01:22:06;;;;;;;;;;;;;;;;;;5011759;28;20516;-57
2022/08/28 01:24:31;;;;;;;;;;;;;;;;;;5013657;28;20025;-56
2022/08/28 01:26:59;;;;;;;;;;;;;;;;;;5012532;28;19921;-57
2022/08/28 01:29:24;;;;;;;;;;;;;;;;;;5010732;28;20276;-57
2022/08/28 01:31:52;;;;;;;;;;;;;;;;;;5009158;28;19921;-57
2022/08/28 01:34:18;;;;;;;;;;;;;;;;;;5012836;28;20002;-56
2022/08/28 01:36:43;;;;;;;;;;;;;;;;;;5014674;28;20011;-57
2022/08/28 01:39:08;;;;;;;;;;;;;;;;;;5012457;28;19917;-56
2022/08/28 01:41:38;;;;;;;;;;;;;;;;;;5013252;28;19921;-56
2022/08/28 01:44:05;;;;;;;;;;;;;;;;;;4987958;28;19912;-57
2022/08/28 01:46:31;;;;;;;;;;;;;;;;;;5013184;28;19917;-57
2022/08/28 01:48:59;;;;;;;;;;;;;;;;;;5009448;28;21108;-57
2022/08/28 01:51:26;;;;;;;;;;;;;;;;;;5010776;28;20865;-57
2022/08/28 01:53:51;;;;;;;;;;;;;;;;;;5012673;28;19932;-57
2022/08/28 01:56:17;;;;;;;;;;;;;;;;;;5012507;28;19921;-57
2022/08/28 01:58:46;;;;;;;;;;;;;;;;;;5011669;28;19921;-57
2022/08/28 02:01:12;;;;;;;;;;;;;;;;;;5010626;28;19928;-57
2022/08/28 02:03:37;;;;;;;;;;;;;;;;;;5010219;28;19949;-57
2022/08/28 02:06:05;;;;;;;;;;;;;;;;;;5012315;28;19931;-57
2022/08/28 02:08:30;;;;;;;;;;;;;;;;;;5012894;28;20372;-57
2022/08/28 02:10:58;;;;;;;;;;;;;;;;;;5011635;28;19941;-57
2022/08/28 02:13:23;;;;;;;;;;;;;;;;;;5016392;28;19925;-57
2022/08/28 02:15:50;;;;;;;;;;;;;;;;;;5010548;28;19947;-57
2022/08/28 02:18:18;;;;;;;;;;;;;;;;;;5011996;28;19921;-57
2022/08/28 02:20:46;;;;;;;;;;;;;;;;;;5009777;28;19929;-57
2022/08/28 02:23:15;;;;;;;;;;;;;;;;;;5010924;28;20819;-57
2022/08/28 02:25:40;;;;;;;;;;;;;;;;;;5010806;28;19932;-57
2022/08/28 02:28:05;;;;;;;;;;;;;;;;;;5002715;28;19921;-57
2022/08/28 02:30:31;;;;;;;;;;;;;;;;;;5010036;28;19917;-57
2022/08/28 02:32:56;;;;;;;;;;;;;;;;;;5011060;28;19963;-57
2022/08/28 02:35:24;;;;;;;;;;;;;;;;;;5011138;28;20529;-57
2022/08/28 02:37:50;;;;;;;;;;;;;;;;;;5016747;28;19923;-57
2022/08/28 02:40:15;;;;;;;;;;;;;;;;;;5013020;28;19928;-56
2022/08/28 02:42:40;;;;;;;;;;;;;;;;;;5014322;28;19924;-58
2022/08/28 02:45:10;;;;;;;;;;;;;;;;;;5013015;28;19999;-56
2022/08/28 02:47:35;;;;;;;;;;;;;;;;;;5011807;28;20327;-56
2022/08/28 02:50:06;;;;;;;;;;;;;;;;;;5010621;28;19921;-56
2022/08/28 02:52:33;;;;;;;;;;;;;;;;;;5029051;28;20818;-56
2022/08/28 02:55:01;;;;;;;;;;;;;;;;;;5014600;28;19967;-56
2022/08/28 02:57:29;;;;;;;;;;;;;;;;;;5007039;28;19926;-57
2022/08/28 02:59:59;;;;;;;;;;;;;;;;;;5013257;28;19965;-57
2022/08/28 03:02:27;;;;;;;;;;;;;;;;;;5027356;28;19921;-57
2022/08/28 03:04:54;;;;;;;;;;;;;;;;;;5011379;28;20038;-57
2022/08/28 03:07:21;;;;;;;;;;;;;;;;;;5011096;28;19921;-57
2022/08/28 03:09:49;;;;;;;;;;;;;;;;;;5012809;28;20058;-57
2022/08/28 03:12:16;;;;;;;;;;;;;;;;;;4997838;28;19924;-57
2022/08/28 03:14:42;;;;;;;;;;;;;;;;;;5012931;28;21244;-57
2022/08/28 03:17:09;;;;;;;;;;;;;;;;;;5017101;28;19917;-57
2022/08/28 03:19:37;;;;;;;;;;;;;;;;;;5014914;28;19921;-57
2022/08/28 03:22:03;;;;;;;;;;;;;;;;;;5015450;28;19936;-57
2022/08/28 03:24:28;;;;;;;;;;;;;;;;;;5017222;28;19925;-57
2022/08/28 03:26:56;;;;;;;;;;;;;;;;;;5013990;28;19928;-55
2022/08/28 03:29:22;;;;;;;;;;;;;;;;;;5014788;28;19917;-56
2022/08/28 03:31:49;;;;;;;;;;;;;;;;;;5016388;28;19933;-58
2022/08/28 03:34:15;;;;;;;;;;;;;;;;;;5015253;28;19920;-57
2022/08/28 03:36:40;;;;;;;;;;;;;;;;;;5004394;28;19921;-57
2022/08/28 03:39:06;;;;;;;;;;;;;;;;;;5015451;28;20028;-57
2022/08/28 03:41:31;;;;;;;;;;;;;;;;;;5000046;28;19932;-57
2022/08/28 03:43:57;;;;;;;;;;;;;;;;;;5032280;28;21098;-57
2022/08/28 03:46:22;;;;;;;;;;;;;;;;;;5016961;28;19929;-57
2022/08/28 03:48:50;;;;;;;;;;;;;;;;;;5018299;28;19917;-56
2022/08/28 03:51:18;;;;;;;;;;;;;;;;;;5014727;28;19924;-56
2022/08/28 03:53:43;;;;;;;;;;;;;;;;;;5015151;28;19920;-57
2022/08/28 03:56:09;;;;;;;;;;;;;;;;;;5015731;28;19928;-56
2022/08/28 03:58:34;;;;;;;;;;;;;;;;;;5014847;28;19928;-57
2022/08/28 04:00:59;;;;;;;;;;;;;;;;;;5014219;28;19971;-57
2022/08/28 04:03:27;;;;;;;;;;;;;;;;;;5014200;28;19921;-58
2022/08/28 04:05:55;;;;;;;;;;;;;;;;;;5013466;28;19963;-56
2022/08/28 04:08:21;;;;;;;;;;;;;;;;;;5014820;28;20004;-56
2022/08/28 04:10:49;;;;;;;;;;;;;;;;;;5014003;28;19920;-56
2022/08/28 04:13:18;;;;;;;;;;;;;;;;;;5016303;28;19929;-56
2022/08/28 04:15:44;;;;;;;;;;;;;;;;;;5014562;28;20019;-57
2022/08/28 04:18:11;;;;;;;;;;;;;;;;;;5015529;28;19917;-56
2022/08/28 04:20:37;;;;;;;;;;;;;;;;;;5017320;28;19940;-57
2022/08/28 04:23:07;;;;;;;;;;;;;;;;;;5015776;28;19923;-57
2022/08/28 04:25:34;;;;;;;;;;;;;;;;;;5012608;28;20372;-57
2022/08/28 04:28:03;;;;;;;;;;;;;;;;;;5015638;28;19964;-57
2022/08/28 04:30:28;;;;;;;;;;;;;;;;;;5013694;28;20118;-56
2022/08/28 04:32:54;;;;;;;;;;;;;;;;;;5015839;28;20916;-56
2022/08/28 04:35:23;;;;;;;;;;;;;;;;;;5014376;28;19917;-56
2022/08/28 04:37:52;;;;;;;;;;;;;;;;;;5013799;28;20061;-56
2022/08/28 04:40:18;;;;;;;;;;;;;;;;;;5013264;28;19931;-56
2022/08/28 04:42:43;;;;;;;;;;;;;;;;;;5029586;28;19925;-57
2022/08/28 04:45:09;;;;;;;;;;;;;;;;;;5014906;28;19925;-56
2022/08/28 04:47:37;;;;;;;;;;;;;;;;;;5013937;28;20938;-57
2022/08/28 04:50:02;;;;;;;;;;;;;;;;;;5013847;28;19925;-57
2022/08/28 04:52:30;;;;;;;;;;;;;;;;;;5012012;28;19952;-57
2022/08/28 04:54:55;;;;;;;;;;;;;;;;;;5012810;28;20010;-58
2022/08/28 04:57:23;;;;;;;;;;;;;;;;;;5014806;28;19921;-58
2022/08/28 04:59:53;;;;;;;;;;;;;;;;;;5013938;28;19925;-58
2022/08/28 05:02:18;;;;;;;;;;;;;;;;;;5012679;28;19965;-57
2022/08/28 05:04:44;;;;;;;;;;;;;;;;;;5014575;28;19925;-57
2022/08/28 05:07:12;;;;;;;;;;;;;;;;;;5014073;28;19921;-57
2022/08/28 05:09:37;;;;;;;;;;;;;;;;;;5013319;28;19963;-57
2022/08/28 05:12:05;;;;;;;;;;;;;;;;;;5016583;28;20646;-57
2022/08/28 05:14:38;;;;;;;;;;;;;;;;;;4994706;28;19935;-58
2022/08/28 05:17:08;;;;;;;;;;;;;;;;;;5029945;28;19960;-58
2022/08/28 05:19:35;;;;;;;;;;;;;;;;;;5015007;28;20051;-58
2022/08/28 05:22:06;;;;;;;;;;;;;;;;;;5009949;28;20062;-58
2022/08/28 05:24:31;;;;;;;;;;;;;;;;;;5012409;28;19937;-57
2022/08/28 05:26:57;;;;;;;;;;;;;;;;;;5014142;28;19921;-58
2022/08/28 05:29:23;;;;;;;;;;;;;;;;;;5014839;28;19928;-57
2022/08/28 05:31:48;;;;;;;;;;;;;;;;;;5014400;28;19921;-57
2022/08/28 05:34:15;;;;;;;;;;;;;;;;;;5014440;28;19924;-58
2022/08/28 05:36:43;;;;;;;;;;;;;;;;;;5010556;28;19917;-57
2022/08/28 05:39:09;;;;;;;;;;;;;;;;;;5013132;28;19925;-58
2022/08/28 05:41:37;;;;;;;;;;;;;;;;;;5010119;28;19932;-58
2022/08/28 05:44:04;;;;;;;;;;;;;;;;;;5014152;28;19956;-58
2022/08/28 05:46:33;;;;;;;;;;;;;;;;;;5009327;28;20055;-58
2022/08/28 05:49:01;;;;;;;;;;;;;;;;;;4996426;28;19927;-58
2022/08/28 05:51:30;;;;;;;;;;;;;;;;;;5014080;28;20522;-58
2022/08/28 05:53:56;;;;;;;;;;;;;;;;;;5010838;28;20027;-58
2022/08/28 05:56:21;;;;;;;;;;;;;;;;;;5011471;28;19965;-58
2022/08/28 05:58:46;;;;;;;;;;;;;;;;;;5012248;28;20126;-55
2022/08/28 06:01:12;;;;;;;;;;;;;;;;;;5012335;28;20142;-58
2022/08/28 06:03:37;;;;;;;;;;;;;;;;;;5011724;28;20059;-57
2022/08/28 06:06:05;;;;;;;;;;;;;;;;;;4999856;28;19928;-58
2022/08/28 06:08:30;;;;;;;;;;;;;;;;;;5029983;28;19921;-58
2022/08/28 06:10:55;;;;;;;;;;;;;;;;;;5012672;28;19916;-58
2022/08/28 06:13:24;;;;;;;;;;;;;;;;;;5014835;28;19956;-58
2022/08/28 06:15:49;;;;;;;;;;;;;;;;;;5013332;28;19924;-58
2022/08/28 06:18:15;;;;;;;;;;;;;;;;;;5017157;28;19924;-58
2022/08/28 06:20:41;;;;;;;;;;;;;;;;;;5015753;28;19924;-58
2022/08/28 06:23:06;;;;;;;;;;;;;;;;;;5012587;28;19926;-58
2022/08/28 06:25:34;;;;;;;;;;;;;;;;;;5014191;28;19947;-58
2022/08/28 06:28:02;;;;;;;;;;;;;;;;;;5013650;28;19921;-58
2022/08/28 06:30:30;;;;;;;;;;;;;;;;;;5010049;28;19924;-58
2022/08/28 06:32:57;;;;;;;;;;;;;;;;;;5012348;28;19921;-58
2022/08/28 06:35:23;;;;;;;;;;;;;;;;;;5013266;28;19928;-58
2022/08/28 06:37:48;;;;;;;;;;;;;;;;;;5012571;28;19923;-59
2022/08/28 06:40:14;;;;;;;;;;;;;;;;;;5012373;28;20763;-58
2022/08/28 06:42:40;;;;;;;;;;;;;;;;;;4992729;28;20033;-58
2022/08/28 06:45:05;;;;;;;;;;;;;;;;;;5012463;28;19944;-58
2022/08/28 06:47:30;;;;;;;;;;;;;;;;;;5010587;28;19924;-58
2022/08/28 06:49:55;;;;;;;;;;;;;;;;;;4992989;28;21929;-58
2022/08/28 06:52:21;;;;;;;;;;;;;;;;;;5011244;28;19924;-58
2022/08/28 06:54:46;;;;;;;;;;;;;;;;;;5011164;28;20814;-58
2022/08/28 06:57:11;;;;;;;;;;;;;;;;;;5000837;28;20511;-59
2022/08/28 06:59:39;;;;;;;;;;;;;;;;;;5010773;28;19921;-58
2022/08/28 07:02:08;;;;;;;;;;;;;;;;;;5012858;28;19917;-59
2022/08/28 07:04:36;;;;;;;;;;;;;;;;;;5013328;28;19925;-59
2022/08/28 07:07:02;;;;;;;;;;;;;;;;;;5012103;28;19928;-59
2022/08/28 07:09:27;;;;;;;;;;;;;;;;;;5015394;28;19921;-59
2022/08/28 07:11:55;;;;;;;;;;;;;;;;;;5000803;28;19964;-59
2022/08/28 07:14:22;;;;;;;;;;;;;;;;;;5012322;28;20043;-59
2022/08/28 07:16:47;;;;;;;;;;;;;;;;;;5012827;28;19931;-60
2022/08/28 07:19:16;;;;;;;;;;;;;;;;;;5012281;28;19917;-59
2022/08/28 07:21:46;;;;;;;;;;;;;;;;;;5011789;28;20348;-59
2022/08/28 07:24:14;;;;;;;;;;;;;;;;;;5014135;28;19924;-60
2022/08/28 07:26:39;;;;;;;;;;;;;;;;;;5011533;28;19928;-59
2022/08/28 07:29:10;;;;;;;;;;;;;;;;;;5014542;28;19964;-60
2022/08/28 07:31:38;;;;;;;;;;;;;;;;;;5012202;28;19949;-60
2022/08/28 07:34:03;;;;;;;;;;;;;;;;;;4994954;28;20055;-60
2022/08/28 07:36:29;;;;;;;;;;;;;;;;;;5013526;28;19925;-60
2022/08/28 07:38:54;;;;;;;;;;;;;;;;;;5011033;28;19921;-61
2022/08/28 07:41:27;;;;;;;;;;;;;;;;;;5009482;28;19917;-61
2022/08/28 07:46:44;;;;;;;;;;;;;;;;;;5011537;28;19964;-59
2022/08/28 07:49:09;;;;;;;;;;;;;;;;;;5012108;28;19953;-60
2022/08/28 07:51:34;;;;;;;;;;;;;;;;;;5009669;28;20019;-60
2022/08/28 07:54:01;;;;;;;;;;;;;;;;;;4996053;28;19921;-59
2022/08/28 07:56:29;;;;;;;;;;;;;;;;;;5012686;28;19921;-59
2022/08/28 07:58:55;;;;;;;;;;;;;;;;;;5015914;28;19960;-60
2022/08/28 08:01:23;;;;;;;;;;;;;;;;;;5019879;28;19921;-60
2022/08/28 08:03:49;;;;;;;;;;;;;;;;;;5011388;28;19927;-60
2022/08/28 08:06:14;;;;;;;;;;;;;;;;;;5016465;28;20006;-60
2022/08/28 08:08:40;;;;;;;;;;;;;;;;;;5013947;28;20044;-60
2022/08/28 08:11:05;;;;;;;;;;;;;;;;;;5015002;28;20050;-59
2022/08/28 08:13:30;;;;;;;;;;;;;;;;;;5014548;28;19929;-60
2022/08/28 08:15:58;;;;;;;;;;;;;;;;;;5014834;28;19929;-60
2022/08/28 08:18:26;;;;;;;;;;;;;;;;;;5017198;28;19940;-59
2022/08/28 08:20:56;;;;;;;;;;;;;;;;;;5013551;28;20051;-59
2022/08/28 08:23:24;;;;;;;;;;;;;;;;;;4996012;28;21667;-60
2022/08/28 08:25:50;;;;;;;;;;;;;;;;;;5013606;28;19927;-59
2022/08/28 08:28:16;;;;;;;;;;;;;;;;;;5015452;28;20459;-60
2022/08/28 08:30:42;;;;;;;;;;;;;;;;;;4998349;28;19957;-61
2022/08/28 08:33:07;;;;;;;;;;;;;;;;;;5013072;28;19921;-59
2022/08/28 08:35:35;;;;;;;;;;;;;;;;;;5007892;28;20072;-60
2022/08/28 08:38:00;;;;;;;;;;;;;;;;;;5014955;28;19929;-59
2022/08/28 08:40:30;;;;;;;;;;;;;;;;;;5011154;28;19921;-61
2022/08/28 08:42:56;;;;;;;;;;;;;;;;;;5010539;28;19987;-61
2022/08/28 08:45:25;;;;;;;;;;;;;;;;;;5013116;28;20858;-60
2022/08/28 08:47:50;;;;;;;;;;;;;;;;;;5009612;28;20138;-60
2022/08/28 08:50:16;;;;;;;;;;;;;;;;;;5011787;28;19916;-61
2022/08/28 08:52:44;;;;;;;;;;;;;;;;;;5028522;28;19994;-62
2022/08/28 08:55:13;;;;;;;;;;;;;;;;;;5013687;28;20326;-60
2022/08/28 08:57:43;;;;;;;;;;;;;;;;;;5009957;28;19920;-61
2022/08/28 09:00:11;;;;;;;;;;;;;;;;;;4998699;28;19924;-60
2022/08/28 09:02:36;;;;;;;;;;;;;;;;;;5016056;28;19929;-60
2022/08/28 09:05:04;;;;;;;;;;;;;;;;;;5011400;28;19924;-61
2022/08/28 09:07:29;;;;;;;;;;;;;;;;;;5009461;28;20448;-62
2022/08/28 09:09:57;;;;;;;;;;;;;;;;;;5013385;28;19925;-60
2022/08/28 09:12:27;;;;;;;;;;;;;;;;;;5012234;28;19949;-61
2022/08/28 09:14:52;;;;;;;;;;;;;;;;;;5014951;28;19928;-60
2022/08/28 09:17:20;;;;;;;;;;;;;;;;;;5011013;28;19975;-61
2022/08/28 09:19:48;;;;;;;;;;;;;;;;;;5007628;28;19921;-61
2022/08/28 09:22:14;;;;;;;;;;;;;;;;;;5008183;28;19967;-62
2022/08/28 09:24:44;;;;;;;;;;;;;;;;;;5011035;28;19921;-61
2022/08/28 09:27:09;;;;;;;;;;;;;;;;;;5009708;28;19925;-60
2022/08/28 09:29:34;;;;;;;;;;;;;;;;;;5012127;28;19921;-59
2022/08/28 09:32:02;;;;;;;;;;;;;;;;;;5007892;28;19917;-60
2022/08/28 09:34:29;;;;;;;;;;;;;;;;;;5007659;28;19920;-61
2022/08/28 09:36:58;;;;;;;;;;;;;;;;;;5009987;28;20018;-63
2022/08/28 09:39:25;;;;;;;;;;;;;;;;;;5013078;28;19921;-61
2022/08/28 09:44:37;;;;;;;;;;;;;;;;;;5010309;28;20010;-59
2022/08/28 09:47:05;;;;;;;;;;;;;;;;;;5011846;28;19921;-60
2022/08/28 09:49:31;;;;;;;;;;;;;;;;;;5012918;28;19964;-59
2022/08/28 09:52:01;;;;;;;;;;;;;;;;;;5012403;28;19921;-61
2022/08/28 09:54:26;;;;;;;;;;;;;;;;;;5014142;28;19968;-59
2022/08/28 09:56:52;;;;;;;;;;;;;;;;;;5012669;28;20008;-61
2022/08/28 09:59:17;;;;;;;;;;;;;;;;;;5011836;28;19928;-60
2022/08/28 10:01:45;;;;;;;;;;;;;;;;;;5013954;28;21283;-59
2022/08/28 10:04:11;;;;;;;;;;;;;;;;;;5015236;28;19920;-60
2022/08/28 10:06:36;;;;;;;;;;;;;;;;;;5012726;28;20384;-60
2022/08/28 10:09:02;;;;;;;;;;;;;;;;;;5015421;28;19921;-60
2022/08/28 10:11:30;;;;;;;;;;;;;;;;;;5011499;28;20336;-61
2022/08/28 10:13:56;;;;;;;;;;;;;;;;;;5014376;28;19925;-61
2022/08/28 10:16:21;;;;;;;;;;;;;;;;;;5015155;28;19917;-62
2022/08/28 10:18:47;;;;;;;;;;;;;;;;;;5012299;28;19921;-61
2022/08/28 10:21:15;;;;;;;;;;;;;;;;;;5010921;28;19925;-61
2022/08/28 10:23:40;;;;;;;;;;;;;;;;;;5011381;28;19960;-62
2022/08/28 10:26:05;;;;;;;;;;;;;;;;;;5028451;28;20079;-59
2022/08/28 10:28:34;;;;;;;;;;;;;;;;;;5011391;28;19927;-59
2022/08/28 10:31:02;;;;;;;;;;;;;;;;;;5016524;28;20007;-61
2022/08/28 10:33:28;;;;;;;;;;;;;;;;;;5012575;28;19935;-60
2022/08/28 10:35:54;;;;;;;;;;;;;;;;;;5010868;28;19970;-61
2022/08/28 10:38:20;;;;;;;;;;;;;;;;;;5013688;28;19948;-60
2022/08/28 10:40:45;;;;;;;;;;;;;;;;;;5011945;28;19928;-60
2022/08/28 10:43:11;;;;;;;;;;;;;;;;;;5011663;28;19917;-60
2022/08/28 10:45:36;;;;;;;;;;;;;;;;;;5011112;28;19921;-62
2022/08/28 10:48:04;;;;;;;;;;;;;;;;;;5011761;28;19916;-60
2022/08/28 10:50:32;;;;;;;;;;;;;;;;;;5010964;28;19971;-60
2022/08/28 10:52:57;;;;;;;;;;;;;;;;;;5011205;28;19925;-59
2022/08/28 10:55:23;;;;;;;;;;;;;;;;;;5012239;28;19924;-60
2022/08/28 10:57:51;;;;;;;;;;;;;;;;;;5013716;28;19921;-60
2022/08/28 11:00:17;;;;;;;;;;;;;;;;;;5009853;28;19949;-60
2022/08/28 11:02:45;;;;;;;;;;;;;;;;;;5011706;28;19917;-60
2022/08/28 11:05:10;;;;;;;;;;;;;;;;;;5011547;28;19931;-60
2022/08/28 11:07:36;;;;;;;;;;;;;;;;;;5011123;28;19984;-62
2022/08/28 11:10:01;;;;;;;;;;;;;;;;;;5013579;28;19928;-61
2022/08/28 11:12:27;;;;;;;;;;;;;;;;;;5008038;28;19925;-59
2022/08/28 11:14:55;;;;;;;;;;;;;;;;;;5024109;28;19932;-61
2022/08/28 11:17:20;;;;;;;;;;;;;;;;;;5011923;28;19917;-60
2022/08/28 11:19:46;;;;;;;;;;;;;;;;;;5011262;28;20056;-61
2022/08/28 11:22:12;;;;;;;;;;;;;;;;;;5010656;28;19929;-59
2022/08/28 11:24:38;;;;;;;;;;;;;;;;;;5011596;28;21040;-59
2022/08/28 11:27:06;;;;;;;;;;;;;;;;;;5009905;28;19952;-60
2022/08/28 11:29:31;;;;;;;;;;;;;;;;;;5012877;28;19967;-61
2022/08/28 11:31:59;;;;;;;;;;;;;;;;;;5012569;28;20403;-60
2022/08/28 11:34:25;;;;;;;;;;;;;;;;;;5013708;28;20496;-61
2022/08/28 11:36:50;;;;;;;;;;;;;;;;;;5013194;28;19921;-62
2022/08/28 11:39:16;;;;;;;;;;;;;;;;;;5014616;28;21056;-61
2022/08/28 11:41:44;;;;;;;;;;;;;;;;;;5015242;28;19917;-60
2022/08/28 11:44:12;;;;;;;;;;;;;;;;;;5017312;28;19974;-60
2022/08/28 11:46:38;;;;;;;;;;;;;;;;;;5014985;28;20637;-60
2022/08/28 11:49:05;;;;;;;;;;;;;;;;;;5015182;28;19921;-61
2022/08/28 11:51:31;;;;;;;;;;;;;;;;;;5014154;28;20537;-59
2022/08/28 11:53:56;;;;;;;;;;;;;;;;;;5015137;28;19929;-60
2022/08/28 11:56:22;;;;;;;;;;;;;;;;;;5014066;28;19964;-60
2022/08/28 11:58:50;;;;;;;;;;;;;;;;;;5013359;28;19928;-60
2022/08/28 12:01:15;;;;;;;;;;;;;;;;;;5014593;28;19921;-60
2022/08/28 12:03:43;;;;;;;;;;;;;;;;;;5015957;28;20011;-60
2022/08/28 12:06:12;;;;;;;;;;;;;;;;;;5015767;28;19929;-60
2022/08/28 12:08:37;;;;;;;;;;;;;;;;;;5013835;28;19927;-59
2022/08/28 12:11:07;;;;;;;;;;;;;;;;;;5013426;28;20007;-59
2022/08/28 12:13:35;;;;;;;;;;;;;;;;;;5013628;28;21786;-59
2022/08/28 12:16:02;;;;;;;;;;;;;;;;;;5014367;28;19917;-60
2022/08/28 12:18:30;;;;;;;;;;;;;;;;;;4997361;28;20016;-61
2022/08/28 12:20:55;;;;;;;;;;;;;;;;;;5015504;28;19935;-60
2022/08/28 12:23:23;;;;;;;;;;;;;;;;;;5013418;28;20286;-60
2022/08/28 12:25:50;;;;;;;;;;;;;;;;;;5013684;28;20087;-61
2022/08/28 12:28:18;;;;;;;;;;;;;;;;;;5016087;28;19929;-59
2022/08/28 12:30:46;;;;;;;;;;;;;;;;;;5012929;28;19921;-59
2022/08/28 12:33:14;;;;;;;;;;;;;;;;;;5014604;28;19925;-60
2022/08/28 12:35:43;;;;;;;;;;;;;;;;;;5013026;28;19928;-60
2022/08/28 12:38:08;;;;;;;;;;;;;;;;;;5011391;28;19928;-59
2022/08/28 12:40:36;;;;;;;;;;;;;;;;;;5002070;28;19971;-60
2022/08/28 12:43:01;;;;;;;;;;;;;;;;;;5012347;28;19917;-59
2022/08/28 12:45:29;;;;;;;;;;;;;;;;;;4987142;28;19928;-60
2022/08/28 12:48:00;;;;;;;;;;;;;;;;;;5013158;28;20690;-60
2022/08/28 12:50:26;;;;;;;;;;;;;;;;;;5011965;28;19929;-60
2022/08/28 12:52:51;;;;;;;;;;;;;;;;;;5010795;28;19925;-60
2022/08/28 12:55:19;;;;;;;;;;;;;;;;;;5013455;28;19932;-60
2022/08/28 12:57:45;;;;;;;;;;;;;;;;;;5013916;28;19971;-61
2022/08/28 13:00:11;;;;;;;;;;;;;;;;;;5012393;28;19963;-61
2022/08/28 13:02:38;;;;;;;;;;;;;;;;;;5013097;28;19921;-61
2022/08/28 13:05:03;;;;;;;;;;;;;;;;;;5011740;28;20463;-62
2022/08/28 13:07:29;;;;;;;;;;;;;;;;;;5016735;28;19921;-60
2022/08/28 13:09:54;;;;;;;;;;;;;;;;;;5011783;28;19971;-59
2022/08/28 13:12:20;;;;;;;;;;;;;;;;;;5014080;28;20023;-60
2022/08/28 13:14:45;;;;;;;;;;;;;;;;;;5012542;28;20003;-59
2022/08/28 13:17:16;;;;;;;;;;;;;;;;;;5004690;28;19917;-59
2022/08/28 13:19:41;;;;;;;;;;;;;;;;;;5015092;28;19928;-59
2022/08/28 13:22:08;;;;;;;;;;;;;;;;;;5012331;28;19925;-59
2022/08/28 13:24:35;;;;;;;;;;;;;;;;;;5011971;28;20010;-59
2022/08/28 13:27:02;;;;;;;;;;;;;;;;;;4996781;28;19921;-60
2022/08/28 13:29:28;;;;;;;;;;;;;;;;;;5011558;28;19959;-63
2022/08/28 13:31:53;;;;;;;;;;;;;;;;;;5013719;28;19925;-63
2022/08/28 13:34:23;;;;;;;;;;;;;;;;;;5013332;28;19932;-61
2022/08/28 13:36:51;;;;;;;;;;;;;;;;;;5010365;28;19977;-60
2022/08/28 13:39:16;;;;;;;;;;;;;;;;;;5016141;28;19917;-59
2022/08/28 13:41:41;;;;;;;;;;;;;;;;;;5014246;28;19944;-60
2022/08/28 13:44:07;;;;;;;;;;;;;;;;;;5012240;28;19921;-59
2022/08/28 13:46:34;;;;;;;;;;;;;;;;;;5012841;28;19917;-60
2022/08/28 13:49:00;;;;;;;;;;;;;;;;;;5010653;28;19936;-61
2022/08/28 13:51:25;;;;;;;;;;;;;;;;;;5011919;28;19917;-60
2022/08/28 13:53:51;;;;;;;;;;;;;;;;;;5011384;28;20904;-60
2022/08/28 13:56:19;;;;;;;;;;;;;;;;;;5011457;28;20360;-59
2022/08/28 13:58:45;;;;;;;;;;;;;;;;;;5011073;28;19921;-59
2022/08/28 14:01:10;;;;;;;;;;;;;;;;;;5009681;28;19921;-61
2022/08/28 14:03:40;;;;;;;;;;;;;;;;;;5012791;28;20008;-61
2022/08/28 14:06:08;;;;;;;;;;;;;;;;;;5008861;28;20015;-59
2022/08/28 14:08:33;;;;;;;;;;;;;;;;;;5011000;28;20012;-58
2022/08/28 14:11:01;;;;;;;;;;;;;;;;;;5015023;28;20593;-59
2022/08/28 14:13:26;;;;;;;;;;;;;;;;;;5012551;28;19921;-59
2022/08/28 14:15:52;;;;;;;;;;;;;;;;;;5012628;28;19925;-60
2022/08/28 14:18:17;;;;;;;;;;;;;;;;;;5011907;28;20365;-59
2022/08/28 14:20:42;;;;;;;;;;;;;;;;;;5008916;28;19929;-60
2022/08/28 14:23:08;;;;;;;;;;;;;;;;;;5012433;28;20458;-60
2022/08/28 14:25:35;;;;;;;;;;;;;;;;;;5010776;28;19925;-60
2022/08/28 14:28:01;;;;;;;;;;;;;;;;;;5010794;28;19951;-60
2022/08/28 14:30:29;;;;;;;;;;;;;;;;;;5009882;28;20454;-61
2022/08/28 14:32:54;;;;;;;;;;;;;;;;;;5010713;28;19946;-61
2022/08/28 14:35:20;;;;;;;;;;;;;;;;;;5010515;28;20518;-60
2022/08/28 14:37:51;;;;;;;;;;;;;;;;;;5011001;28;19917;-60
2022/08/28 14:40:16;;;;;;;;;;;;;;;;;;5011441;28;20835;-61
2022/08/28 14:42:44;;;;;;;;;;;;;;;;;;5011120;28;19917;-59
2022/08/28 14:45:12;;;;;;;;;;;;;;;;;;5010977;28;20358;-59
2022/08/28 14:47:38;;;;;;;;;;;;;;;;;;5011740;28;20008;-61
2022/08/28 14:50:03;;;;;;;;;;;;;;;;;;5013205;28;19917;-60
2022/08/28 14:52:31;;;;;;;;;;;;;;;;;;5011715;28;19927;-59
2022/08/28 14:54:56;;;;;;;;;;;;;;;;;;5012608;28;19944;-59
2022/08/28 14:57:21;;;;;;;;;;;;;;;;;;5009981;28;19916;-59
2022/08/28 14:59:51;;;;;;;;;;;;;;;;;;5011651;28;20077;-61
2022/08/28 15:02:17;;;;;;;;;;;;;;;;;;5011775;28;19974;-59
2022/08/28 15:04:43;;;;;;;;;;;;;;;;;;5007176;28;19921;-59
2022/08/28 15:07:09;;;;;;;;;;;;;;;;;;5013438;28;19921;-59
2022/08/28 15:09:37;;;;;;;;;;;;;;;;;;5011450;28;19923;-59
2022/08/28 15:12:05;;;;;;;;;;;;;;;;;;5011488;28;19932;-59
2022/08/28 15:14:30;;;;;;;;;;;;;;;;;;5011142;28;19926;-59
2022/08/28 15:17:01;;;;;;;;;;;;;;;;;;5001900;28;20474;-59
2022/08/28 15:19:29;;;;;;;;;;;;;;;;;;5016003;28;19967;-59
2022/08/28 15:21:56;;;;;;;;;;;;;;;;;;5009350;28;20036;-59
2022/08/28 15:24:24;;;;;;;;;;;;;;;;;;5011825;28;21011;-59
2022/08/28 15:26:55;;;;;;;;;;;;;;;;;;4999406;28;19917;-59
2022/08/28 15:29:24;;;;;;;;;;;;;;;;;;5011461;28;19921;-60
2022/08/28 15:31:49;;;;;;;;;;;;;;;;;;5011748;28;19932;-60
2022/08/28 15:34:17;;;;;;;;;;;;;;;;;;5011877;28;19925;-59
2022/08/28 15:36:46;;;;;;;;;;;;;;;;;;5012268;28;19921;-59
2022/08/28 15:41:55;;;;;;;;;;;;;;;;;;5011720;28;20410;-60
2022/08/28 15:44:23;;;;;;;;;;;;;;;;;;4993924;28;19929;-59
2022/08/28 15:46:48;;;;;;;;;;;;;;;;;;4996936;28;20634;-59
2022/08/28 15:49:16;;;;;;;;;;;;;;;;;;5012161;28;20349;-60
2022/08/28 15:51:44;;;;;;;;;;;;;;;;;;5012085;28;19918;-59
2022/08/28 15:54:10;;;;;;;;;;;;;;;;;;5012465;28;21224;-59
2022/08/28 15:56:35;;;;;;;;;;;;;;;;;;5011731;28;19917;-58
2022/08/28 15:59:00;;;;;;;;;;;;;;;;;;5010017;28;19925;-60
2022/08/28 16:01:28;;;;;;;;;;;;;;;;;;5011102;28;19947;-60
2022/08/28 16:03:56;;;;;;;;;;;;;;;;;;5013085;28;19917;-59
2022/08/28 16:06:22;;;;;;;;;;;;;;;;;;5010068;28;19921;-59
2022/08/28 16:08:47;;;;;;;;;;;;;;;;;;4991563;28;20563;-59
2022/08/28 16:11:14;;;;;;;;;;;;;;;;;;5026061;28;20019;-59
2022/08/28 16:13:45;;;;;;;;;;;;;;;;;;5013460;28;19998;-59
2022/08/28 16:16:10;;;;;;;;;;;;;;;;;;4993831;28;20008;-59
2022/08/28 16:18:36;;;;;;;;;;;;;;;;;;5011159;28;19923;-59
2022/08/28 16:21:04;;;;;;;;;;;;;;;;;;5015786;28;19976;-60
2022/08/28 16:23:29;;;;;;;;;;;;;;;;;;5017068;28;20016;-59
2022/08/28 16:25:55;;;;;;;;;;;;;;;;;;5012792;28;19917;-60
2022/08/28 16:28:20;;;;;;;;;;;;;;;;;;5017861;28;19925;-60
2022/08/28 16:30:45;;;;;;;;;;;;;;;;;;5014410;28;20011;-59
2022/08/28 16:33:18;;;;;;;;;;;;;;;;;;5017022;28;19921;-59
2022/08/28 16:35:46;;;;;;;;;;;;;;;;;;5015083;28;20597;-58
2022/08/28 16:38:16;;;;;;;;;;;;;;;;;;5018199;28;21703;-60
2022/08/28 16:40:41;;;;;;;;;;;;;;;;;;5014349;28;20008;-58
2022/08/28 16:43:07;;;;;;;;;;;;;;;;;;5013052;28;19939;-61
2022/08/28 16:45:35;;;;;;;;;;;;;;;;;;5012554;28;19932;-59
2022/08/28 16:48:05;;;;;;;;;;;;;;;;;;4998493;28;20183;-58
2022/08/28 16:50:31;;;;;;;;;;;;;;;;;;5008353;28;19921;-60